Aviation Digital Data Service (ADDS)

Output produced by METARs form (2355 UTC 23 May 2022)
found at http://www.aviationweather.gov/metar/data/
 
TAF HLLB 232300Z 2400/2424 VRB02KT 8000 NSC 
     BECMG 2406/2408 12012KT 
     BECMG 2415/2417 30012KT 
       
TAF HLTD 232300Z 2400/2424 VRB02KT CAVOK
       
TAF HLGT 232300Z 2400/2424 VRB02KT 8000 NSC
       
TAF HLKF 232300Z 2400/2424 VRB02KT CAVOK
       
TAF HLLS 232300Z 2400/2424 14012KT 8000 FEW045 SCT090